Terminal Aerodrome Forecast
Issued by NWS

Current Version | Previous Version | Text Only | Print | Product List | Glossary On
Versions: 1 2 3 4 5 6 7 8 9 10 11 12 13 14 15 16 17 18 19
000
FTUS46 KHNX 110936 AAA
TAFFAT
TAF AMD
KFAT 110936Z 1110/1206 VRB04KT P6SM OVC025
      TEMPO 1110/1112 -RA
     FM112100 29004KT 4SM HZ SCT030 BKN250=

USA.gov is the U.S. government's official web portal to all federal, state and local government web resources and services.